Indian Island, Maine
Current Conditions -  °F | °C
As of 8:53 AM on Sunday 21 Dec 2014 (Local Time) from KBGR Reporting Station
Overcast Overcast  
Wind Chill: 18°   Ceiling: 3400
Heat Index: 25°   Visibility: 10mi
Dew Point: 22°   Wind: 6mph
Humidity: 88%   Direction: 10°N
Pressure: 30.37"   Gusts: NA
Location:  45.0236°N, 68.7394°W
Report Text: KBGR 211353Z 01005KT 10SM FEW010 OVC034 M04/M06 A3037 RMK AO2 SLP287 T10391056
Loading
Personal Weather Stations






























Interactive Weather Map New forecast layout! Learn more

10-Day Weather Forecast

Advertisements
Track Severe Weather on mobile